Welcome to our Virtual Airline
Sign-in:

Flight MFC1071052

  • Submitted By: William Butler
  • Departure Airport: Cape Sarichef (PACS)
  • Arrival Airport: Pauloff Harbor (KPH)
  • Aircraft: BEAVER DHC2 (N3292W)
  • Flight Time: 00.35.25
  • Date Submitted: 24/06/17
  • Route: NO STOPS
  • Status: Accepted
Flight Details
Gross Revenue:
(4 load / $ 78.00 per unit
$ 312.00
Fuel Cost:
(40.3697 fuel used @ 5.1 / unit)
$ 205.89

Additional Log Information:

View Log

[19:57] ----- Flight Opened -----
[19:57] Cigar Box - 1.1.4.0
[19:57] FS: FSX
[19:57] FSUIPC: v4.929
[19:57] Flight Number: MFC1071052
[19:57] FS Aircraft: MilViz DHC2 Beaver N5347G Floats
[19:57] FS Model: DHC2
[19:57] FS Type: Silent
[19:57] Departure: PACS
[19:57] Arrival: KPH
[19:57] Flight Level: 1500
[19:57] Flight Type: H
[19:57] Passengers: 4
[19:57] FOB: 567 lbs
[19:57] Gate: n/a
[19:57] NOTE: Parking Brake Ignored
[19:57] Crash Detection: Disabled
[19:57] Crash Detection Aircraft: Disabled
[19:57] Engines: 1 Piston
[19:57] NOTE: Boarding has started
[19:57] Engine 1: Started
[19:57] Light Data: Navigation ON
[19:57] Light Data: Beacon ON
[19:57] Main Door Closed
[19:57] COM1: 128.30
[19:57] COM2: 127.80
[19:57] Transponder: 1200
[19:57] NAV1: 113.70
[19:57] NAV2: 110.60
[19:57] ADF1: 284.0
[19:57] ADF2: 240.0
[19:57] Navigation Mode: NAV
[19:58] NOTE: Taxi started
[19:58] NOTE: ----- TAKE OFF -----
[19:58] GS: 48 knots
[19:58] TAS: 50 knots
[19:58] IAS: 41 knots
[19:58] VS: 0 fpm
[19:58] FOB: 566 lbs
[19:58] Heading: 164°
[19:58] Pitch: 0°
[19:58] Bank: 0°
[19:58] Aircraft Weight: 4446.62 lbs
[19:58] Nearest Airport: PACS
[19:58] Distance: 0.18 miles
[19:58] Runway: 16 - PACS
[19:58] Ground Surface: Gravel
[19:58] Ground Condition: Normal
[19:58] NOTE: Weather Report
[19:58] Wind Heading: 347°
[19:58] Wind Speed: 0 knots
[19:58] OAT: 14° C
[19:58] TAT: 14° C
[19:58] Precipitation: None
[19:58] Dew Point: 4° C
[19:58] Visibility: 62 miles
[19:58] METAR:
[19:58] NOTE: Climb started
[19:58] Landing Gear: Retracted
[19:58] GS: 73 knots
[19:58] TAS: 75 knots
[19:58] IAS: 68 knots
[19:58] VS: 710 fpm
[19:58] AGL: 36 ft
[19:58] AMSL: 278 ft
[19:58] View Mode: Virtual Cockpit
[20:03] NOTE: TOC reached
[20:03] NOTE: Cruise started
[20:03] GS: 103 knots
[20:03] TAS: 95 knots
[20:03] IAS: 84 knots
[20:03] VS: 197 fpm
[20:03] FOB: 548 lbs
[20:03] Heading: 85°
[20:03] Pitch: 2°
[20:03] Bank: 0°
[20:03] Aircraft Weight: 4428.63 lbs
[20:14] Sim Rate: 2x
[20:15] Recovery: Flight Saved
[20:17] FS: Paused
[20:17] FS: Unpaused
[20:17] Engine 1: Stopped
[20:17] Engine 1: Started
[20:17] Sim Rate: 1x
[20:18] Flaps: Position 1
[20:18] GS: 124 knots
[20:18] TAS: 125 knots
[20:18] IAS: 119 knots
[20:18] VS: -878 fpm
[20:18] Flaps: Position 2
[20:18] GS: 122 knots
[20:18] TAS: 123 knots
[20:18] IAS: 117 knots
[20:18] VS: -978 fpm
[20:20] Flaps: Position 3
[20:20] GS: 97 knots
[20:20] TAS: 97 knots
[20:20] IAS: 91 knots
[20:20] VS: -282 fpm
[20:20] Flaps: Position 4
[20:20] GS: 95 knots
[20:20] TAS: 95 knots
[20:20] IAS: 89 knots
[20:20] VS: -178 fpm
[20:20] NOTE: TOD reached
[20:20] NOTE: Descent started
[20:20] GS: 87 knots
[20:20] TAS: 88 knots
[20:20] IAS: 81 knots
[20:20] VS: -409 fpm
[20:20] FOB: 503 lbs
[20:20] Heading: 110°
[20:20] Pitch: 3°
[20:20] Bank: 0°
[20:20] Aircraft Weight: 4383.11 lbs
[20:20] NOTE: On approach
[20:23] Flaps: Position 5
[20:23] GS: 77 knots
[20:23] TAS: 77 knots
[20:23] IAS: 71 knots
[20:23] VS: 118 fpm
[20:23] Flaps: Position 6
[20:23] GS: 71 knots
[20:23] TAS: 73 knots
[20:23] IAS: 66 knots
[20:23] VS: -46 fpm
[20:24] FS: Paused
[20:24] FS: Unpaused
[20:31] NOTE: ----- LANDED -----
[20:31] Landing Rate: -81.51 fpm
[20:31] GS: 62 knots
[20:31] TAS: 63 knots
[20:31] IAS: 56 knots
[20:31] VS: -81 fpm
[20:31] FOB: 479 lbs
[20:31] Heading: 353°
[20:31] Pitch: 0°
[20:31] Bank: 1°
[20:31] Aircraft Weight: 4359.33 lbs
[20:31] Nearest Airport: KPH
[20:31] Distance: 0.02 miles
[20:31] Runway: ???
[20:31] Ground Surface: Water
[20:31] Ground Condition: Normal
[20:31] NOTE: Weather Report
[20:31] Wind Heading: 346°
[20:31] Wind Speed: 0 knots
[20:31] OAT: 15° C
[20:31] TAT: 15° C
[20:31] Precipitation: None
[20:31] Dew Point: 5° C
[20:31] Visibility: 62 miles
[20:31] METAR: KPHT 170155Z AUTO 14004KT 10SM CLR 28/23 A2997 RMK A01 KPHL 170054Z 16007KT 10SM FEW065 SCT250 24/12 A3017 RMK AO2 SLP215 T02390117 $ KPHP 170155Z AUTO 10003KT 10SM CLR 21/05 A2981 RMK AO2 SLP081 T02110050 $ KPHF 170154Z 15007KT 10SM CLR 23/12 A3020 RMK AO2 SLP226 T02330117 KPHN 170155Z AUTO 16005KT 10SM CLR 22/11 A2995 RMK AO2 KPHX 170151Z 26016KT 10SM CLR 42/M03 A2952 RMK AO2 PK WND 27027/0059 SLP973 T04221028 KPHD 170153Z AUTO 00000KT 10SM CLR 24/18 A3004 RMK AO2 SLP167 T02390183
[20:31] View Mode: Virtual Cockpit
[20:31] NOTE: Taxi started
[20:34] Light Data: Beacon OFF
[20:34] COM1: 121.05
[20:34] NAV1: 108.02
[20:34] Light Data: Navigation OFF
[20:34] Flaps: Position 4
[20:34] Flaps: Position 3
[20:34] Flaps: Position 2
[20:34] Engine 1: Stopped
[20:35] Gate: n/a
[20:35] NOTE: Flight Completed
[20:35] FS Aircraft: MilViz DHC2 Beaver N5347G Floats
[20:35] FS Model: DHC2
[20:35] FS Type: Silent
[20:35] FOB: 478 lbs
[20:35] Fuel Used: 89 lbs
[20:35] Flight Time: 00:35:25
[20:35] Flight Time (Dawn): 00:00:00
[20:35] Flight Time (Day): 00:35:25
[20:35] Flight Time (Dusk): 00:00:00
[20:35] Flight Time (Night): 00:00:00
[20:35] Total Landings: 1
[20:35] MaxSim Rate: 2x
[20:35] Cigar Box - 1.1.4.0
[20:35] ----- Flight Closed -----

Route Map

© 2024 - Misty Flying Club